sensor_id;sensor_type;location;lat;lon;timestamp;pressure;altitude;pressure_sealevel;temperature;humidity
19811;BME280;10065;49.632;8.346;2023-08-08T06:25:36;100610.19;;;17.01;70.01
19811;BME280;10065;49.632;8.346;2023-08-08T06:28:12;100610.66;;;17.05;69.91
19811;BME280;10065;49.632;8.346;2023-08-08T06:30:42;100603.19;;;17.15;68.98
19811;BME280;10065;49.632;8.346;2023-08-08T06:33:12;100615.09;;;17.12;69.15
19811;BME280;10065;49.632;8.346;2023-08-08T06:35:42;100613.97;;;17.21;68.07
19811;BME280;10065;49.632;8.346;2023-08-08T06:38:11;100609.75;;;17.12;68.51
19811;BME280;10065;49.632;8.346;2023-08-08T06:40:45;100612.84;;;17.16;68.01
19811;BME280;10065;49.632;8.346;2023-08-08T06:43:13;100607.38;;;17.24;67.34
19811;BME280;10065;49.632;8.346;2023-08-08T06:45:41;100617.19;;;17.32;67.44
19811;BME280;10065;49.632;8.346;2023-08-08T06:48:09;100609.88;;;17.40;67.07
19811;BME280;10065;49.632;8.346;2023-08-08T06:50:37;100608.44;;;17.44;66.64
19811;BME280;10065;49.632;8.346;2023-08-08T06:53:06;100604.22;;;17.50;66.28
19811;BME280;10065;49.632;8.346;2023-08-08T06:55:42;100607.97;;;17.55;66.21
19811;BME280;10065;49.632;8.346;2023-08-08T06:58:14;100605.53;;;17.60;64.95
19811;BME280;10065;49.632;8.346;2023-08-08T07:00:43;100594.34;;;17.72;64.67
19811;BME280;10065;49.632;8.346;2023-08-08T07:03:14;100596.00;;;17.73;64.37
19811;BME280;10065;49.632;8.346;2023-08-08T07:05:43;100597.06;;;17.78;64.04
19811;BME280;10065;49.632;8.346;2023-08-08T07:08:11;100598.19;;;17.84;63.35
19811;BME280;10065;49.632;8.346;2023-08-08T07:10:39;100603.78;;;17.89;62.71
19811;BME280;10065;49.632;8.346;2023-08-08T07:13:10;100606.75;;;17.94;62.69
19811;BME280;10065;49.632;8.346;2023-08-08T07:15:42;100610.69;;;17.98;62.37
19811;BME280;10065;49.632;8.346;2023-08-08T07:18:14;100610.72;;;18.04;62.23
19811;BME280;10065;49.632;8.346;2023-08-08T07:20:45;100609.75;;;18.12;62.23
19811;BME280;10065;49.632;8.346;2023-08-08T07:23:16;100601.34;;;18.15;60.78
19811;BME280;10065;49.632;8.346;2023-08-08T07:25:45;100609.50;;;18.28;59.08
19811;BME280;10065;49.632;8.346;2023-08-08T07:28:16;100601.00;;;18.25;59.33
19811;BME280;10065;49.632;8.346;2023-08-08T07:30:48;100601.63;;;18.27;59.89
19811;BME280;10065;49.632;8.346;2023-08-08T07:33:18;100603.72;;;18.31;59.63
19811;BME280;10065;49.632;8.346;2023-08-08T07:35:46;100603.34;;;18.34;58.90
19811;BME280;10065;49.632;8.346;2023-08-08T07:38:14;100598.63;;;18.36;59.27
19811;BME280;10065;49.632;8.346;2023-08-08T07:40:43;100595.53;;;18.39;58.92
19811;BME280;10065;49.632;8.346;2023-08-08T07:43:19;100597.03;;;18.49;58.78
19811;BME280;10065;49.632;8.346;2023-08-08T07:45:51;100591.53;;;18.57;57.58
19811;BME280;10065;49.632;8.346;2023-08-08T07:48:19;100589.50;;;18.59;57.73
19811;BME280;10065;49.632;8.346;2023-08-08T07:50:48;100582.06;;;18.61;57.43
19811;BME280;10065;49.632;8.346;2023-08-08T07:53:19;100592.84;;;18.67;57.79
19811;BME280;10065;49.632;8.346;2023-08-08T07:55:53;100587.50;;;18.74;57.56
19811;BME280;10065;49.632;8.346;2023-08-08T07:58:23;100593.16;;;18.86;57.47
19811;BME280;10065;49.632;8.346;2023-08-08T08:01:03;100594.22;;;18.91;57.62
19811;BME280;10065;49.632;8.346;2023-08-08T08:03:34;100586.78;;;18.93;56.82
19811;BME280;10065;49.632;8.346;2023-08-08T08:06:09;100586.97;;;18.92;56.58
19811;BME280;10065;49.632;8.346;2023-08-08T08:08:37;100580.84;;;18.98;56.50
19811;BME280;10065;49.632;8.346;2023-08-08T08:11:05;100586.41;;;18.96;56.05
19811;BME280;10065;49.632;8.346;2023-08-08T08:13:34;100587.63;;;19.00;56.96
19811;BME280;10065;49.632;8.346;2023-08-08T08:16:03;100586.22;;;19.04;56.63
19811;BME280;10065;49.632;8.346;2023-08-08T08:18:31;100580.84;;;19.04;56.35
19811;BME280;10065;49.632;8.346;2023-08-08T08:21:00;100581.25;;;19.01;53.60
19811;BME280;10065;49.632;8.346;2023-08-08T08:23:31;100581.88;;;19.03;52.77
19811;BME280;10065;49.632;8.346;2023-08-08T08:26:02;100582.25;;;19.00;51.88
19811;BME280;10065;49.632;8.346;2023-08-08T08:28:30;100579.81;;;19.05;51.41
19811;BME280;10065;49.632;8.346;2023-08-08T08:31:05;100574.91;;;19.22;51.86
19811;BME280;10065;49.632;8.346;2023-08-08T08:33:33;100564.38;;;19.27;51.04
19811;BME280;10065;49.632;8.346;2023-08-08T08:36:02;100584.09;;;19.41;51.54
19811;BME280;10065;49.632;8.346;2023-08-08T08:38:33;100578.53;;;19.49;51.16
19811;BME280;10065;49.632;8.346;2023-08-08T08:41:04;100574.00;;;19.49;49.93
19811;BME280;10065;49.632;8.346;2023-08-08T08:43:32;100577.53;;;19.63;50.57
19811;BME280;10065;49.632;8.346;2023-08-08T08:46:01;100574.66;;;19.71;50.22
19811;BME280;10065;49.632;8.346;2023-08-08T08:48:31;100573.66;;;19.79;50.06
19811;BME280;10065;49.632;8.346;2023-08-08T08:51:02;100576.72;;;19.82;49.09
19811;BME280;10065;49.632;8.346;2023-08-08T08:53:31;100575.31;;;19.86;50.11
19811;BME280;10065;49.632;8.346;2023-08-08T08:56:05;100567.22;;;19.86;49.11
19811;BME280;10065;49.632;8.346;2023-08-08T08:58:35;100577.56;;;19.83;48.48
19811;BME280;10065;49.632;8.346;2023-08-08T09:01:13;100570.31;;;19.97;48.43
19811;BME280;10065;49.632;8.346;2023-08-08T09:03:45;100581.09;;;20.03;48.22
19811;BME280;10065;49.632;8.346;2023-08-08T09:06:19;100568.03;;;20.07;48.62
19811;BME280;10065;49.632;8.346;2023-08-08T09:08:48;100570.50;;;20.15;48.54
19811;BME280;10065;49.632;8.346;2023-08-08T09:11:33;100562.84;;;20.25;48.08
19811;BME280;10065;49.632;8.346;2023-08-08T09:14:02;100559.75;;;20.35;47.97
19811;BME280;10065;49.632;8.346;2023-08-08T09:16:31;100567.19;;;20.52;48.89
19811;BME280;10065;49.632;8.346;2023-08-08T09:19:03;100567.34;;;20.71;47.74
19811;BME280;10065;49.632;8.346;2023-08-08T09:21:34;100568.53;;;20.88;47.59
19811;BME280;10065;49.632;8.346;2023-08-08T09:24:03;100555.19;;;21.06;47.31
19811;BME280;10065;49.632;8.346;2023-08-08T09:26:32;100559.50;;;21.20;47.36
19811;BME280;10065;49.632;8.346;2023-08-08T09:29:01;100563.19;;;21.32;46.53
19811;BME280;10065;49.632;8.346;2023-08-08T09:31:29;100555.03;;;21.46;46.17
19811;BME280;10065;49.632;8.346;2023-08-08T09:33:58;100561.81;;;21.55;46.09
19811;BME280;10065;49.632;8.346;2023-08-08T09:36:28;100560.06;;;21.67;45.72
19811;BME280;10065;49.632;8.346;2023-08-08T09:38:59;100562.56;;;21.68;45.07
19811;BME280;10065;49.632;8.346;2023-08-08T09:41:27;100564.00;;;21.71;45.43
19811;BME280;10065;49.632;8.346;2023-08-08T09:43:56;100555.78;;;21.84;44.95
19811;BME280;10065;49.632;8.346;2023-08-08T09:46:24;100553.47;;;21.88;44.68
19811;BME280;10065;49.632;8.346;2023-08-08T09:48:52;100555.25;;;22.00;45.00
19811;BME280;10065;49.632;8.346;2023-08-08T09:51:21;100551.25;;;22.09;44.48
19811;BME280;10065;49.632;8.346;2023-08-08T09:53:51;100552.69;;;22.12;44.88
19811;BME280;10065;49.632;8.346;2023-08-08T09:56:20;100546.38;;;22.18;45.40
19811;BME280;10065;49.632;8.346;2023-08-08T09:58:53;100548.44;;;22.23;45.12
19811;BME280;10065;49.632;8.346;2023-08-08T10:01:26;100546.06;;;22.33;44.63
19811;BME280;10065;49.632;8.346;2023-08-08T10:03:55;100548.22;;;22.24;44.07
19811;BME280;10065;49.632;8.346;2023-08-08T10:06:25;100544.19;;;22.33;43.75
19811;BME280;10065;49.632;8.346;2023-08-08T10:08:55;100547.03;;;22.38;44.03
19811;BME280;10065;49.632;8.346;2023-08-08T10:11:24;100545.44;;;22.31;43.47
19811;BME280;10065;49.632;8.346;2023-08-08T10:13:53;100541.91;;;22.30;42.32
19811;BME280;10065;49.632;8.346;2023-08-08T10:16:22;100541.84;;;22.37;42.75
19811;BME280;10065;49.632;8.346;2023-08-08T10:18:58;100538.53;;;22.35;42.43
19811;BME280;10065;49.632;8.346;2023-08-08T10:21:27;100549.28;;;22.17;42.67
19811;BME280;10065;49.632;8.346;2023-08-08T10:24:08;100549.38;;;22.10;42.19
19811;BME280;10065;49.632;8.346;2023-08-08T10:26:51;100552.19;;;22.22;41.73
19811;BME280;10065;49.632;8.346;2023-08-08T10:29:24;100543.78;;;22.30;41.80
19811;BME280;10065;49.632;8.346;2023-08-08T10:32:23;100537.78;;;22.46;40.88
19811;BME280;10065;49.632;8.346;2023-08-08T10:35:09;100536.00;;;22.58;41.13
19811;BME280;10065;49.632;8.346;2023-08-08T10:37:38;100538.56;;;22.71;41.37
19811;BME280;10065;49.632;8.346;2023-08-08T10:40:18;100539.63;;;22.88;40.73
19811;BME280;10065;49.632;8.346;2023-08-08T10:42:54;100539.09;;;22.98;40.77
19811;BME280;10065;49.632;8.346;2023-08-08T10:45:29;100538.53;;;23.08;40.96
19811;BME280;10065;49.632;8.346;2023-08-08T10:48:15;100530.81;;;23.11;40.52
19811;BME280;10065;49.632;8.346;2023-08-08T10:50:45;100531.31;;;23.20;41.74
19811;BME280;10065;49.632;8.346;2023-08-08T10:53:14;100527.69;;;23.26;41.24
19811;BME280;10065;49.632;8.346;2023-08-08T10:55:45;100523.72;;;23.40;40.61
19811;BME280;10065;49.632;8.346;2023-08-08T11:01:24;100522.63;;;23.59;40.08
19811;BME280;10065;49.632;8.346;2023-08-08T11:03:57;100514.75;;;23.58;39.94
19811;BME280;10065;49.632;8.346;2023-08-08T11:06:32;100523.94;;;23.69;39.92
19811;BME280;10065;49.632;8.346;2023-08-08T11:09:01;100521.47;;;23.55;40.38
19811;BME280;10065;49.632;8.346;2023-08-08T11:11:37;100526.91;;;23.37;40.10
19811;BME280;10065;49.632;8.346;2023-08-08T11:14:27;100524.38;;;23.24;39.70
19811;BME280;10065;49.632;8.346;2023-08-08T11:17:05;100527.19;;;23.17;40.83
19811;BME280;10065;49.632;8.346;2023-08-08T11:19:38;100527.59;;;23.03;40.29
19811;BME280;10065;49.632;8.346;2023-08-08T11:22:09;100517.78;;;22.90;40.44
19811;BME280;10065;49.632;8.346;2023-08-08T11:24:38;100520.88;;;22.75;40.77
19811;BME280;10065;49.632;8.346;2023-08-08T11:27:08;100520.53;;;22.65;40.88
19811;BME280;10065;49.632;8.346;2023-08-08T11:29:37;100523.34;;;22.77;40.71
19811;BME280;10065;49.632;8.346;2023-08-08T11:32:11;100518.66;;;23.02;40.50
19811;BME280;10065;49.632;8.346;2023-08-08T11:34:43;100515.63;;;23.10;39.96
19811;BME280;10065;49.632;8.346;2023-08-08T11:37:20;100523.84;;;23.04;39.99
19811;BME280;10065;49.632;8.346;2023-08-08T11:39:53;100513.31;;;22.96;40.32
19811;BME280;10065;49.632;8.346;2023-08-08T11:42:27;100517.16;;;22.70;40.61
19811;BME280;10065;49.632;8.346;2023-08-08T11:44:56;100506.88;;;22.60;41.31
19811;BME280;10065;49.632;8.346;2023-08-08T11:47:28;100509.06;;;22.51;41.10
19811;BME280;10065;49.632;8.346;2023-08-08T11:50:11;100498.91;;;22.47;40.53
19811;BME280;10065;49.632;8.346;2023-08-08T11:53:01;100505.97;;;22.48;40.52
19811;BME280;10065;49.632;8.346;2023-08-08T11:55:36;100510.34;;;22.49;40.89
19811;BME280;10065;49.632;8.346;2023-08-08T11:58:16;100497.44;;;22.51;39.70
19811;BME280;10065;49.632;8.346;2023-08-08T12:00:51;100496.31;;;22.59;39.58
19811;BME280;10065;49.632;8.346;2023-08-08T12:03:45;100495.06;;;22.73;39.40
19811;BME280;10065;49.632;8.346;2023-08-08T12:06:18;100483.44;;;22.72;38.61
19811;BME280;10065;49.632;8.346;2023-08-08T12:08:54;100488.44;;;22.75;38.76
19811;BME280;10065;49.632;8.346;2023-08-08T12:11:34;100489.47;;;22.74;39.00
19811;BME280;10065;49.632;8.346;2023-08-08T12:17:30;100499.03;;;22.77;37.69
19811;BME280;10065;49.632;8.346;2023-08-08T12:20:14;100491.13;;;22.75;38.11
19811;BME280;10065;49.632;8.346;2023-08-08T12:22:52;100506.72;;;22.73;38.38
19811;BME280;10065;49.632;8.346;2023-08-08T12:25:21;100489.66;;;22.73;37.67
19811;BME280;10065;49.632;8.346;2023-08-08T12:30:57;100490.50;;;22.73;38.06
19811;BME280;10065;49.632;8.346;2023-08-08T12:33:43;100484.72;;;22.70;38.89
19811;BME280;10065;49.632;8.346;2023-08-08T12:36:50;100481.66;;;22.66;38.66
19811;BME280;10065;49.632;8.346;2023-08-08T12:39:19;100479.28;;;22.76;38.70
19811;BME280;10065;49.632;8.346;2023-08-08T12:42:05;100484.22;;;22.79;39.10
19811;BME280;10065;49.632;8.346;2023-08-08T12:44:33;100490.22;;;22.81;38.32
19811;BME280;10065;49.632;8.346;2023-08-08T12:47:09;100485.41;;;22.83;37.87
19811;BME280;10065;49.632;8.346;2023-08-08T12:50:15;100476.47;;;22.83;38.31
19811;BME280;10065;49.632;8.346;2023-08-08T12:53:02;100474.81;;;22.82;38.32
19811;BME280;10065;49.632;8.346;2023-08-08T12:55:31;100489.66;;;22.73;38.17
19811;BME280;10065;49.632;8.346;2023-08-08T12:58:08;100486.22;;;22.66;38.12
19811;BME280;10065;49.632;8.346;2023-08-08T13:00:46;100479.88;;;22.60;38.99
19811;BME280;10065;49.632;8.346;2023-08-08T13:03:19;100480.53;;;22.56;39.07
19811;BME280;10065;49.632;8.346;2023-08-08T13:06:37;100487.47;;;22.51;40.13
19811;BME280;10065;49.632;8.346;2023-08-08T13:09:19;100485.41;;;22.47;39.68
19811;BME280;10065;49.632;8.346;2023-08-08T13:11:56;100475.88;;;22.44;40.31
19811;BME280;10065;49.632;8.346;2023-08-08T13:14:27;100475.22;;;22.49;40.27
19811;BME280;10065;49.632;8.346;2023-08-08T13:17:00;100482.78;;;22.59;39.38
19811;BME280;10065;49.632;8.346;2023-08-08T13:19:30;100478.53;;;22.51;39.38
19811;BME280;10065;49.632;8.346;2023-08-08T13:22:05;100477.09;;;22.48;40.01
19811;BME280;10065;49.632;8.346;2023-08-08T13:24:33;100472.34;;;22.44;40.81
19811;BME280;10065;49.632;8.346;2023-08-08T13:27:02;100470.69;;;22.43;40.18
19811;BME280;10065;49.632;8.346;2023-08-08T13:29:33;100466.81;;;22.39;40.19
19811;BME280;10065;49.632;8.346;2023-08-08T13:32:02;100468.28;;;22.35;40.40
19811;BME280;10065;49.632;8.346;2023-08-08T13:34:33;100463.72;;;22.35;40.80
19811;BME280;10065;49.632;8.346;2023-08-08T13:37:19;100468.38;;;22.28;40.51
19811;BME280;10065;49.632;8.346;2023-08-08T13:39:47;100463.72;;;22.17;40.74
19811;BME280;10065;49.632;8.346;2023-08-08T13:42:17;100454.72;;;22.23;41.03
19811;BME280;10065;49.632;8.346;2023-08-08T13:44:46;100462.31;;;22.33;41.50
19811;BME280;10065;49.632;8.346;2023-08-08T13:47:14;100455.56;;;22.42;41.51
19811;BME280;10065;49.632;8.346;2023-08-08T13:49:44;100457.34;;;22.48;40.58
19811;BME280;10065;49.632;8.346;2023-08-08T13:52:14;100453.28;;;22.57;40.57
19811;BME280;10065;49.632;8.346;2023-08-08T13:54:42;100457.88;;;22.57;41.09
19811;BME280;10065;49.632;8.346;2023-08-08T13:57:12;100459.44;;;22.46;40.79
19811;BME280;10065;49.632;8.346;2023-08-08T13:59:43;100460.78;;;22.37;41.13
19811;BME280;10065;49.632;8.346;2023-08-08T14:05:25;100454.94;;;22.22;41.77
19811;BME280;10065;49.632;8.346;2023-08-08T14:08:01;100440.84;;;22.20;41.62
19811;BME280;10065;49.632;8.346;2023-08-08T14:10:33;100446.97;;;22.27;42.11
19811;BME280;10065;49.632;8.346;2023-08-08T14:13:07;100444.75;;;22.24;42.32
19811;BME280;10065;49.632;8.346;2023-08-08T14:15:56;100442.41;;;22.27;42.08
19811;BME280;10065;49.632;8.346;2023-08-08T14:18:30;100439.13;;;22.25;42.63
19811;BME280;10065;49.632;8.346;2023-08-08T14:21:07;100441.28;;;22.17;42.33
19811;BME280;10065;49.632;8.346;2023-08-08T14:23:44;100443.44;;;22.08;42.47
19811;BME280;10065;49.632;8.346;2023-08-08T14:26:14;100437.91;;;22.03;42.91
19811;BME280;10065;49.632;8.346;2023-08-08T14:28:45;100436.94;;;21.97;43.11
19811;BME280;10065;49.632;8.346;2023-08-08T14:31:13;100446.03;;;21.96;42.97
19811;BME280;10065;49.632;8.346;2023-08-08T14:33:44;100442.91;;;21.99;43.16
19811;BME280;10065;49.632;8.346;2023-08-08T14:36:16;100438.59;;;21.98;43.17
19811;BME280;10065;49.632;8.346;2023-08-08T14:38:44;100446.47;;;21.93;43.33
19811;BME280;10065;49.632;8.346;2023-08-08T14:41:21;100448.34;;;21.93;43.42
19811;BME280;10065;49.632;8.346;2023-08-08T14:43:50;100444.91;;;21.86;42.96
19811;BME280;10065;49.632;8.346;2023-08-08T14:46:22;100449.53;;;21.78;43.00
19811;BME280;10065;49.632;8.346;2023-08-08T14:48:59;100451.84;;;21.75;43.40
19811;BME280;10065;49.632;8.346;2023-08-08T14:51:29;100458.97;;;21.69;44.00
19811;BME280;10065;49.632;8.346;2023-08-08T14:53:57;100472.94;;;21.60;44.41
19811;BME280;10065;49.632;8.346;2023-08-08T14:56:28;100463.03;;;21.54;44.28
19811;BME280;10065;49.632;8.346;2023-08-08T14:58:58;100467.22;;;21.50;44.44
19811;BME280;10065;49.632;8.346;2023-08-08T15:01:32;100468.25;;;21.49;44.66
19811;BME280;10065;49.632;8.346;2023-08-08T15:04:08;100470.34;;;21.47;45.19
19811;BME280;10065;49.632;8.346;2023-08-08T15:06:45;100478.88;;;21.44;45.42
19811;BME280;10065;49.632;8.346;2023-08-08T15:09:16;100479.72;;;21.37;45.50
19811;BME280;10065;49.632;8.346;2023-08-08T15:11:48;100482.06;;;21.34;46.20
19811;BME280;10065;49.632;8.346;2023-08-08T15:14:57;100474.59;;;21.36;46.28
19811;BME280;10065;49.632;8.346;2023-08-08T15:17:27;100478.69;;;21.38;46.59
19811;BME280;10065;49.632;8.346;2023-08-08T15:19:59;100478.88;;;21.44;46.82
19811;BME280;10065;49.632;8.346;2023-08-08T15:22:32;100477.22;;;21.43;46.38
19811;BME280;10065;49.632;8.346;2023-08-08T15:25:09;100479.09;;;21.42;46.46
19811;BME280;10065;49.632;8.346;2023-08-08T15:28:42;100476.41;;;21.42;46.31
19811;BME280;10065;49.632;8.346;2023-08-08T15:30:38;100471.22;;;21.40;46.35
19811;BME280;10065;49.632;8.346;2023-08-08T15:33:06;100482.63;;;21.43;46.69
19811;BME280;10065;49.632;8.346;2023-08-08T15:35:35;100485.09;;;21.44;46.70
19811;BME280;10065;49.632;8.346;2023-08-08T15:38:08;100485.94;;;21.45;46.50
19811;BME280;10065;49.632;8.346;2023-08-08T15:40:39;100490.09;;;21.40;46.78
19811;BME280;10065;49.632;8.346;2023-08-08T15:43:08;100488.03;;;21.43;46.90
19811;BME280;10065;49.632;8.346;2023-08-08T15:45:37;100482.00;;;21.40;46.87
19811;BME280;10065;49.632;8.346;2023-08-08T15:48:05;100488.22;;;21.41;47.08
19811;BME280;10065;49.632;8.346;2023-08-08T15:50:35;100479.53;;;21.39;47.73
19811;BME280;10065;49.632;8.346;2023-08-08T15:53:04;100474.81;;;21.34;47.62
19811;BME280;10065;49.632;8.346;2023-08-08T15:55:36;100473.16;;;21.33;48.19
19811;BME280;10065;49.632;8.346;2023-08-08T15:58:09;100476.06;;;21.32;48.26
19811;BME280;10065;49.632;8.346;2023-08-08T16:00:44;100474.19;;;21.32;48.29
19811;BME280;10065;49.632;8.346;2023-08-08T16:03:12;100475.00;;;21.33;48.43
19811;BME280;10065;49.632;8.346;2023-08-08T16:05:46;100472.72;;;21.36;48.63
19811;BME280;10065;49.632;8.346;2023-08-08T16:08:38;100470.03;;;21.36;48.98
19811;BME280;10065;49.632;8.346;2023-08-08T16:11:28;100467.69;;;21.40;49.03
19811;BME280;10065;49.632;8.346;2023-08-08T16:14:03;100476.63;;;21.40;49.49
19811;BME280;10065;49.632;8.346;2023-08-08T16:16:40;100478.28;;;21.42;49.45
19811;BME280;10065;49.632;8.346;2023-08-08T16:19:18;100466.03;;;21.39;49.26
19811;BME280;10065;49.632;8.346;2023-08-08T16:25:53;100476.00;;;21.38;49.69
19811;BME280;10065;49.632;8.346;2023-08-08T16:28:37;100461.31;;;21.34;50.09
19811;BME280;10065;49.632;8.346;2023-08-08T16:31:11;100474.34;;;21.37;50.32
19811;BME280;10065;49.632;8.346;2023-08-08T16:34:18;100478.28;;;21.42;50.29
19811;BME280;10065;49.632;8.346;2023-08-08T16:36:53;100477.66;;;21.39;50.33
19811;BME280;10065;49.632;8.346;2023-08-08T16:39:21;100482.44;;;21.37;50.47
19811;BME280;10065;49.632;8.346;2023-08-08T16:41:50;100480.19;;;21.34;50.20
19811;BME280;10065;49.632;8.346;2023-08-08T16:44:40;100480.63;;;21.31;50.40
19811;BME280;10065;49.632;8.346;2023-08-08T16:47:09;100480.47;;;21.26;50.81
19811;BME280;10065;49.632;8.346;2023-08-08T16:49:38;100494.56;;;21.22;50.96
19811;BME280;10065;49.632;8.346;2023-08-08T16:52:13;100494.19;;;21.18;51.13
19811;BME280;10065;49.632;8.346;2023-08-08T16:54:52;100499.97;;;21.15;50.97
19811;BME280;10065;49.632;8.346;2023-08-08T17:01:27;100505.41;;;21.09;50.82
19811;BME280;10065;49.632;8.346;2023-08-08T17:03:59;100497.38;;;21.02;51.20
19811;BME280;10065;49.632;8.346;2023-08-08T17:06:50;100494.44;;;21.03;51.64
19811;BME280;10065;49.632;8.346;2023-08-08T17:09:21;100484.09;;;21.00;51.51
19811;BME280;10065;49.632;8.346;2023-08-08T17:12:07;100486.19;;;20.98;51.74
19811;BME280;10065;49.632;8.346;2023-08-08T17:14:49;100477.06;;;20.99;51.86
19811;BME280;10065;49.632;8.346;2023-08-08T17:17:33;100481.63;;;20.99;52.10
19811;BME280;10065;49.632;8.346;2023-08-08T17:20:13;100489.09;;;20.97;52.34
19811;BME280;10065;49.632;8.346;2023-08-08T17:22:49;100482.03;;;20.96;52.61
19811;BME280;10065;49.632;8.346;2023-08-08T17:25:36;100475.81;;;20.95;52.86
19811;BME280;10065;49.632;8.346;2023-08-08T17:28:35;100473.34;;;20.94;53.11
19811;BME280;10065;49.632;8.346;2023-08-08T17:31:12;100475.44;;;20.92;53.27
19811;BME280;10065;49.632;8.346;2023-08-08T17:41:13;100487.06;;;20.86;53.54
19811;BME280;10065;49.632;8.346;2023-08-08T17:43:48;100485.00;;;20.88;53.83
19811;BME280;10065;49.632;8.346;2023-08-08T17:46:19;100483.78;;;20.84;53.97
19811;BME280;10065;49.632;8.346;2023-08-08T17:48:52;100482.13;;;20.83;54.03
19811;BME280;10065;49.632;8.346;2023-08-08T17:52:24;100491.88;;;20.84;53.79
19811;BME280;10065;49.632;8.346;2023-08-08T18:07:00;100498.31;;;20.76;54.24
19811;BME280;10065;49.632;8.346;2023-08-08T18:10:15;100494.81;;;20.76;54.54
19811;BME280;10065;49.632;8.346;2023-08-08T18:13:22;100487.75;;;20.75;54.43
19811;BME280;10065;49.632;8.346;2023-08-08T18:16:33;100487.13;;;20.73;54.45
19811;BME280;10065;49.632;8.346;2023-08-08T18:19:52;100486.72;;;20.69;55.02
19811;BME280;10065;49.632;8.346;2023-08-08T18:26:05;100480.50;;;20.69;54.98
19811;BME280;10065;49.632;8.346;2023-08-08T18:28:51;100483.41;;;20.67;54.53
19811;BME280;10065;49.632;8.346;2023-08-08T18:31:25;100472.63;;;20.67;54.88
19811;BME280;10065;49.632;8.346;2023-08-08T18:40:39;100477.66;;;20.63;55.30
19811;BME280;10065;49.632;8.346;2023-08-08T18:43:40;100471.63;;;20.61;54.95
19811;BME280;10065;49.632;8.346;2023-08-08T18:46:36;100475.16;;;20.62;54.53
19811;BME280;10065;49.632;8.346;2023-08-08T18:52:44;100475.81;;;20.57;55.06
19811;BME280;10065;49.632;8.346;2023-08-08T18:55:13;100478.72;;;20.56;55.18
19811;BME280;10065;49.632;8.346;2023-08-08T18:58:09;100487.00;;;20.54;55.73
19811;BME280;10065;49.632;8.346;2023-08-08T19:00:46;100491.97;;;20.51;56.32
19811;BME280;10065;49.632;8.346;2023-08-08T19:03:39;100502.97;;;20.49;56.20
19811;BME280;10065;49.632;8.346;2023-08-08T19:06:15;100498.84;;;20.47;56.01
19811;BME280;10065;49.632;8.346;2023-08-08T19:09:31;100497.38;;;20.44;56.27
19811;BME280;10065;49.632;8.346;2023-08-08T19:12:19;100498.88;;;20.40;56.48
19811;BME280;10065;49.632;8.346;2023-08-08T19:15:15;100489.34;;;20.38;56.56
19811;BME280;10065;49.632;8.346;2023-08-08T19:18:01;100485.19;;;20.35;56.65
19811;BME280;10065;49.632;8.346;2023-08-08T19:24:14;100497.81;;;20.28;57.62
19811;BME280;10065;49.632;8.346;2023-08-08T19:27:31;100498.84;;;20.27;57.74
19811;BME280;10065;49.632;8.346;2023-08-08T19:30:14;100498.44;;;20.23;58.15
19811;BME280;10065;49.632;8.346;2023-08-08T19:32:46;100498.88;;;20.20;58.54
19811;BME280;10065;49.632;8.346;2023-08-08T19:35:50;100504.06;;;20.22;58.67
19811;BME280;10065;49.632;8.346;2023-08-08T19:38:32;100503.00;;;20.16;59.28
19811;BME280;10065;49.632;8.346;2023-08-08T19:41:10;100504.66;;;20.17;59.91
19811;BME280;10065;49.632;8.346;2023-08-08T19:43:38;100504.69;;;20.11;61.52
19811;BME280;10065;49.632;8.346;2023-08-08T19:46:10;100502.22;;;20.03;63.66
19811;BME280;10065;49.632;8.346;2023-08-08T19:48:38;100498.72;;;19.96;64.78
19811;BME280;10065;49.632;8.346;2023-08-08T19:51:06;100490.84;;;19.87;65.30
19811;BME280;10065;49.632;8.346;2023-08-08T19:53:35;100496.00;;;19.82;67.67
19811;BME280;10065;49.632;8.346;2023-08-08T19:56:30;100495.19;;;19.75;68.27
19811;BME280;10065;49.632;8.346;2023-08-08T19:59:01;100491.03;;;19.73;68.41
19811;BME280;10065;49.632;8.346;2023-08-08T20:01:42;100487.97;;;19.69;68.03
19811;BME280;10065;49.632;8.346;2023-08-08T20:04:11;100479.25;;;19.67;67.87
19811;BME280;10065;49.632;8.346;2023-08-08T20:06:40;100482.16;;;19.66;69.27
19811;BME280;10065;49.632;8.346;2023-08-08T20:09:23;100488.97;;;19.62;68.58
19811;BME280;10065;49.632;8.346;2023-08-08T20:12:05;100486.06;;;19.63;67.63
19811;BME280;10065;49.632;8.346;2023-08-08T20:14:38;100485.03;;;19.64;68.39
19811;BME280;10065;49.632;8.346;2023-08-08T20:17:08;100491.88;;;19.60;68.68
19811;BME280;10065;49.632;8.346;2023-08-08T20:19:37;100483.59;;;19.55;69.53
19811;BME280;10065;49.632;8.346;2023-08-08T20:22:31;100477.38;;;19.54;70.47
19811;BME280;10065;49.632;8.346;2023-08-08T20:25:26;100476.34;;;19.49;70.08
19811;BME280;10065;49.632;8.346;2023-08-08T20:27:59;100473.41;;;19.44;71.35
19811;BME280;10065;49.632;8.346;2023-08-08T20:30:44;100465.75;;;19.41;70.82
19811;BME280;10065;49.632;8.346;2023-08-08T20:34:13;100466.41;;;19.43;71.56
19811;BME280;10065;49.632;8.346;2023-08-08T22:35:46;100426.91;;;18.15;92.51
19811;BME280;10065;49.632;8.346;2023-08-08T23:11:03;100386.38;;;18.03;94.13
